Terminal Aerodrome Forecast
Issued by NWS

Home | Current Version | Previous Version | Text Only | Print | Product List | Glossary On
Versions: 1 2 3 4 5 6 7 8 9 10 11 12 13 14
000
FTUS43 KPAH 281600 AAA
TAFCGI
TAF AMD
KCGI 281616Z 2816/2912 32010KT P6SM BKN030
      TEMPO 2818/2822 33012G18KT SCT035
     FM290100 35003KT P6SM SKC=

USA.gov is the U.S. government's official web portal to all federal, state and local government web resources and services.